Time;durP1;ratioP1;P1;durP2;ratioP2;P2;SDS_P1;SDS_P2;PMS_P1;PMS_P2;Temp;Humidity;BMP_temperature;BMP_pressure;BME280_temperature;BME280_humidity;BME280_pressure;Samples;Min_cycle;Max_cycle;Signal;HPM_P1;HPM_P2
2020/12/03 00:01:50;;;;;;;17.52;10.27;;;2.00;99.90;;;;;;5080802;28;20050;-58
2020/12/03 00:04:16;;;;;;;16.52;9.52;;;2.00;99.90;;;;;;5101833;28;20387;-58
2020/12/03 00:06:52;;;;;;;17.58;9.52;;;1.90;99.90;;;;;;5104317;28;20036;-59
2020/12/03 00:09:19;;;;;;;17.70;9.48;;;1.90;99.90;;;;;;5097552;28;20032;-56
2020/12/03 00:11:48;;;;;;;15.00;9.07;;;1.90;99.90;;;;;;5082655;28;20044;-59
2020/12/03 00:14:14;;;;;;;16.92;9.30;;;1.90;99.90;;;;;;5079439;28;20051;-57
2020/12/03 00:16:41;;;;;;;16.10;8.93;;;1.80;99.90;;;;;;5088556;28;20036;-56
2020/12/03 00:19:08;;;;;;;17.52;9.82;;;1.80;99.90;;;;;;5089393;28;20040;-59
2020/12/03 00:21:49;;;;;;;19.77;10.02;;;1.80;99.90;;;;;;5090313;28;20040;-60
2020/12/03 00:24:18;;;;;;;16.20;9.23;;;1.90;99.90;;;;;;5086532;28;20040;-60
2020/12/03 00:26:44;;;;;;;14.63;8.98;;;1.90;99.90;;;;;;5089524;28;20146;-60
2020/12/03 00:29:09;;;;;;;15.82;8.95;;;1.90;99.90;;;;;;5089107;28;20156;-60
2020/12/03 00:31:36;;;;;;;18.27;9.38;;;1.90;99.90;;;;;;5088177;28;20047;-59
2020/12/03 00:34:07;;;;;;;14.48;8.48;;;1.90;99.90;;;;;;5087865;28;20131;-59
2020/12/03 00:36:33;;;;;;;14.13;8.40;;;1.90;99.90;;;;;;5089287;28;20044;-60
2020/12/03 00:39:00;;;;;;;16.42;9.02;;;1.80;99.90;;;;;;5081909;28;20473;-60
2020/12/03 00:41:26;;;;;;;13.75;8.73;;;1.80;99.90;;;;;;5069541;28;20051;-55
2020/12/03 00:43:51;;;;;;;15.95;9.02;;;1.80;99.90;;;;;;5069682;28;20040;-56
2020/12/03 00:46:17;;;;;;;15.05;8.60;;;1.70;99.90;;;;;;5069135;28;20133;-59
2020/12/03 00:48:42;;;;;;;15.10;8.73;;;1.70;99.90;;;;;;5067098;28;20041;-57
2020/12/03 00:51:11;;;;;;;12.32;7.65;;;1.70;99.90;;;;;;5069091;28;20545;-60
2020/12/03 00:53:38;;;;;;;13.23;8.02;;;1.70;99.90;;;;;;5073281;28;20040;-59
2020/12/03 00:56:04;;;;;;;13.65;7.85;;;1.80;99.90;;;;;;5088796;28;20086;-59
2020/12/03 00:58:29;;;;;;;12.52;7.40;;;1.80;99.90;;;;;;5087462;28;20181;-59
2020/12/03 01:00:55;;;;;;;13.07;7.72;;;1.90;99.90;;;;;;5088522;28;20104;-60
2020/12/03 01:03:20;;;;;;;13.05;7.93;;;1.80;99.90;;;;;;5088716;28;20514;-60
2020/12/03 01:05:46;;;;;;;11.95;7.07;;;1.80;99.90;;;;;;5069195;28;20043;-60
2020/12/03 01:08:11;;;;;;;10.77;6.93;;;1.80;99.90;;;;;;5069009;28;20147;-60
2020/12/03 01:10:37;;;;;;;10.82;6.90;;;1.80;99.90;;;;;;5070042;28;20454;-60
2020/12/03 01:13:04;;;;;;;13.95;7.70;;;1.80;99.90;;;;;;5069487;28;20041;-59
2020/12/03 01:15:30;;;;;;;11.18;6.93;;;1.80;99.90;;;;;;5083470;28;20530;-59
2020/12/03 01:17:56;;;;;;;9.32;5.80;;;1.80;99.90;;;;;;5089091;28;20040;-56
2020/12/03 01:20:26;;;;;;;10.38;6.05;;;1.80;99.90;;;;;;5071802;28;20194;-58
2020/12/03 01:22:52;;;;;;;12.80;7.22;;;1.90;99.90;;;;;;5068725;28;20044;-59
2020/12/03 01:25:21;;;;;;;11.43;6.85;;;1.90;99.90;;;;;;5079358;28;20043;-60
2020/12/03 01:27:46;;;;;;;9.77;5.88;;;1.90;99.90;;;;;;5073243;28;20036;-60
2020/12/03 01:30:15;;;;;;;10.43;5.60;;;1.90;99.90;;;;;;5064773;28;20033;-57
2020/12/03 01:32:40;;;;;;;12.30;6.13;;;1.90;99.90;;;;;;5050837;28;20052;-58
2020/12/03 01:35:08;;;;;;;9.85;6.00;;;1.80;99.90;;;;;;5074903;28;20032;-58
2020/12/03 01:37:34;;;;;;;8.93;5.80;;;1.80;99.90;;;;;;5088918;28;20111;-60
2020/12/03 01:40:00;;;;;;;9.95;6.18;;;1.70;99.90;;;;;;5088988;28;20044;-57
2020/12/03 01:42:25;;;;;;;10.00;5.82;;;1.70;99.90;;;;;;5076413;28;20035;-57
2020/12/03 01:44:54;;;;;;;9.95;6.10;;;1.70;99.90;;;;;;5069494;28;20063;-54
2020/12/03 01:47:36;;;;;;;9.02;5.70;;;1.60;99.90;;;;;;5067440;28;20051;-54
2020/12/03 01:50:03;;;;;;;10.48;6.10;;;1.60;99.90;;;;;;5048085;28;20045;-58
2020/12/03 01:52:29;;;;;;;10.73;6.15;;;1.50;99.90;;;;;;5067248;28;20072;-54
2020/12/03 01:54:55;;;;;;;9.13;5.70;;;1.50;99.90;;;;;;5067230;28;20102;-58
2020/12/03 01:57:48;;;;;;;9.60;5.70;;;1.40;99.90;;;;;;5068771;28;20048;-57
2020/12/03 02:00:17;;;;;;;9.68;5.63;;;1.50;99.90;;;;;;5068105;28;20047;-53
2020/12/03 02:02:46;;;;;;;8.40;5.25;;;1.50;99.90;;;;;;5071803;28;20576;-59
2020/12/03 02:05:19;;;;;;;8.90;5.72;;;1.50;99.90;;;;;;5088584;28;20426;-53
2020/12/03 02:07:45;;;;;;;8.57;5.65;;;1.50;99.90;;;;;;5088011;28;20040;-55
2020/12/03 02:10:12;;;;;;;9.98;5.72;;;1.60;99.90;;;;;;5088068;28;20131;-58
2020/12/03 02:12:38;;;;;;;9.80;5.97;;;1.60;99.90;;;;;;5081661;28;20069;-56
2020/12/03 02:15:06;;;;;;;9.85;5.97;;;1.60;99.90;;;;;;5087881;28;20043;-58
2020/12/03 02:17:32;;;;;;;9.25;6.03;;;1.60;99.90;;;;;;5087711;28;20062;-54
2020/12/03 02:19:59;;;;;;;8.60;5.03;;;1.60;99.90;;;;;;5087617;28;20064;-58
2020/12/03 02:22:25;;;;;;;9.38;5.60;;;1.60;99.90;;;;;;5088159;28;20130;-57
2020/12/03 02:24:51;;;;;;;8.95;5.53;;;1.60;99.90;;;;;;5087503;28;20131;-57
2020/12/03 02:27:20;;;;;;;8.63;5.35;;;1.70;99.90;;;;;;5074823;28;20036;-57
2020/12/03 02:29:45;;;;;;;12.05;6.53;;;1.70;99.90;;;;;;5067711;28;20044;-57
2020/12/03 02:32:11;;;;;;;9.57;6.05;;;1.80;99.90;;;;;;5065474;28;20039;-53
2020/12/03 02:34:37;;;;;;;10.02;5.80;;;1.70;99.90;;;;;;5066713;28;20048;-57
2020/12/03 02:37:03;;;;;;;11.05;6.10;;;1.70;99.90;;;;;;5065107;28;20115;-57
2020/12/03 02:39:31;;;;;;;8.80;5.63;;;1.70;99.90;;;;;;5066528;28;20044;-58
2020/12/03 02:41:57;;;;;;;10.25;6.20;;;1.70;99.90;;;;;;5069176;28;20047;-56
2020/12/03 02:44:23;;;;;;;11.20;6.47;;;1.80;99.90;;;;;;5066572;28;20214;-54
2020/12/03 02:46:49;;;;;;;10.35;6.28;;;1.70;99.90;;;;;;5066956;28;20161;-56
2020/12/03 02:49:16;;;;;;;11.80;6.10;;;1.70;99.90;;;;;;5066916;28;20036;-59
2020/12/03 02:51:42;;;;;;;9.27;5.60;;;1.70;99.90;;;;;;5067249;28;20048;-58
2020/12/03 02:54:09;;;;;;;9.10;5.65;;;1.70;99.90;;;;;;5067100;28;20121;-58
2020/12/03 02:56:36;;;;;;;8.43;5.45;;;1.60;99.90;;;;;;5065412;28;20048;-55
2020/12/03 02:59:02;;;;;;;9.30;5.43;;;1.60;99.90;;;;;;5086759;28;20522;-53
2020/12/03 03:01:28;;;;;;;10.32;5.95;;;1.70;99.90;;;;;;5085782;28;20047;-56
2020/12/03 03:03:53;;;;;;;10.13;6.20;;;1.70;99.90;;;;;;5080921;28;20528;-55
2020/12/03 03:06:19;;;;;;;9.43;5.47;;;1.60;99.90;;;;;;5061959;28;20040;-53
2020/12/03 03:08:44;;;;;;;9.60;5.65;;;1.60;99.90;;;;;;5085504;28;20127;-55
2020/12/03 03:11:10;;;;;;;9.32;5.70;;;1.60;99.90;;;;;;5087014;28;20620;-58
2020/12/03 03:13:35;;;;;;;9.52;5.70;;;1.70;99.90;;;;;;5086710;28;20040;-59
2020/12/03 03:16:01;;;;;;;8.30;5.15;;;1.70;99.90;;;;;;5086636;28;20123;-57
2020/12/03 03:18:27;;;;;;;9.95;5.82;;;1.70;99.90;;;;;;5069890;28;20685;-58
2020/12/03 03:20:52;;;;;;;8.88;5.15;;;1.70;99.90;;;;;;5067279;28;20047;-57
2020/12/03 03:23:18;;;;;;;9.38;5.40;;;1.70;99.90;;;;;;5066668;28;21252;-55
2020/12/03 03:25:44;;;;;;;9.77;5.78;;;1.70;99.90;;;;;;5067449;28;20036;-58
2020/12/03 03:28:11;;;;;;;8.43;5.15;;;1.60;99.90;;;;;;5081198;28;20044;-58
2020/12/03 03:30:37;;;;;;;13.40;5.85;;;1.70;99.90;;;;;;5086641;28;20117;-54
2020/12/03 03:33:04;;;;;;;10.50;6.15;;;1.60;99.90;;;;;;5086505;28;20040;-57
2020/12/03 03:35:29;;;;;;;10.27;6.35;;;1.60;99.90;;;;;;5087621;28;20040;-58
2020/12/03 03:37:55;;;;;;;10.68;6.68;;;1.60;99.90;;;;;;5086722;28;20384;-59
2020/12/03 03:40:21;;;;;;;8.98;5.55;;;1.60;99.90;;;;;;5087663;28;20089;-58
2020/12/03 03:42:46;;;;;;;10.68;6.13;;;1.50;99.90;;;;;;5071998;28;20041;-57
2020/12/03 03:45:12;;;;;;;11.07;6.70;;;1.60;99.90;;;;;;5054591;28;20037;-58
2020/12/03 03:47:39;;;;;;;14.32;6.80;;;1.60;99.90;;;;;;5050084;28;20040;-59
2020/12/03 03:50:07;;;;;;;11.43;6.60;;;1.60;99.90;;;;;;5066899;28;20531;-58
2020/12/03 03:52:32;;;;;;;11.27;6.80;;;1.70;99.90;;;;;;5074321;28;20032;-57
2020/12/03 03:54:58;;;;;;;13.35;7.25;;;1.70;99.90;;;;;;5090646;28;20410;-59
2020/12/03 03:57:24;;;;;;;11.05;6.53;;;1.80;99.90;;;;;;5090882;28;20072;-58
2020/12/03 03:59:49;;;;;;;10.45;6.25;;;1.80;99.90;;;;;;5090053;28;20063;-60
2020/12/03 04:02:17;;;;;;;17.02;6.68;;;1.80;99.90;;;;;;5080562;28;20837;-57
2020/12/03 04:04:43;;;;;;;11.95;5.97;;;1.80;99.90;;;;;;5077361;28;20044;-57
2020/12/03 04:07:09;;;;;;;10.77;6.47;;;1.80;99.90;;;;;;5069029;28;20090;-59
2020/12/03 04:09:34;;;;;;;10.63;6.15;;;1.80;99.90;;;;;;5070465;28;20102;-53
2020/12/03 04:11:59;;;;;;;12.38;6.82;;;1.90;99.90;;;;;;5070340;28;20032;-59
2020/12/03 04:14:25;;;;;;;9.88;6.50;;;1.90;99.90;;;;;;5083305;28;20052;-59
2020/12/03 04:16:51;;;;;;;10.40;6.40;;;1.90;99.90;;;;;;5082998;28;20047;-57
2020/12/03 04:19:16;;;;;;;10.43;6.43;;;1.80;99.90;;;;;;5069891;28;20202;-58
2020/12/03 04:21:42;;;;;;;15.55;7.15;;;1.80;99.90;;;;;;5070194;28;20098;-58
2020/12/03 04:24:07;;;;;;;11.23;7.10;;;1.80;99.90;;;;;;5070169;28;20044;-60
2020/12/03 04:26:33;;;;;;;12.52;7.25;;;1.80;99.90;;;;;;5070270;28;20032;-60
2020/12/03 04:28:58;;;;;;;11.85;6.93;;;1.80;99.90;;;;;;5069848;28;20049;-59
2020/12/03 04:31:24;;;;;;;13.52;7.20;;;1.80;99.90;;;;;;5072962;28;20564;-60
2020/12/03 04:33:49;;;;;;;11.70;6.60;;;1.80;99.90;;;;;;5090505;28;20119;-59
2020/12/03 04:36:16;;;;;;;10.32;6.28;;;1.80;99.90;;;;;;5089962;28;20133;-56
2020/12/03 04:38:41;;;;;;;10.82;6.63;;;1.80;99.90;;;;;;5090141;28;20500;-58
2020/12/03 04:41:07;;;;;;;11.25;7.22;;;1.90;99.90;;;;;;5082490;28;20038;-58
2020/12/03 04:43:40;;;;;;;11.60;6.82;;;1.90;99.90;;;;;;5061113;28;20040;-59
2020/12/03 04:46:21;;;;;;;13.80;7.47;;;1.90;99.90;;;;;;5083545;28;20653;-58
2020/12/03 04:49:01;;;;;;;11.43;7.25;;;1.90;99.90;;;;;;5088433;28;20539;-58
2020/12/03 04:51:51;;;;;;;12.15;6.57;;;2.00;99.90;;;;;;5079348;28;20047;-59
2020/12/03 04:54:27;;;;;;;11.75;7.30;;;1.90;99.90;;;;;;5069891;28;20049;-58
2020/12/03 04:57:23;;;;;;;16.15;7.38;;;1.90;99.90;;;;;;5069507;28;20037;-60
2020/12/03 05:00:11;;;;;;;11.90;7.18;;;1.90;99.90;;;;;;5068723;28;20105;-59
2020/12/03 05:03:10;;;;;;;11.25;6.85;;;1.90;99.90;;;;;;5085468;28;20493;-57
2020/12/03 05:05:56;;;;;;;11.20;6.35;;;1.80;99.90;;;;;;5073142;28;20044;-60
2020/12/03 05:08:53;;;;;;;12.32;7.03;;;1.80;99.90;;;;;;5068738;28;20036;-58
2020/12/03 05:11:26;;;;;;;10.93;6.72;;;1.80;99.90;;;;;;5069462;28;20048;-57
2020/12/03 05:14:00;;;;;;;11.68;6.97;;;1.90;99.90;;;;;;5068537;28;20101;-59
2020/12/03 05:16:45;;;;;;;12.85;7.07;;;1.90;99.90;;;;;;5069629;28;20072;-59
2020/12/03 05:19:32;;;;;;;13.40;7.65;;;1.90;99.90;;;;;;5068844;28;20036;-58
2020/12/03 05:21:59;;;;;;;12.15;7.47;;;1.90;99.90;;;;;;5069123;28;20040;-57
2020/12/03 05:24:24;;;;;;;11.60;6.70;;;1.90;99.90;;;;;;5069297;28;20036;-60
2020/12/03 05:26:50;;;;;;;14.23;7.50;;;1.90;99.90;;;;;;5088579;28;20115;-56
2020/12/03 05:29:15;;;;;;;13.23;7.65;;;1.90;99.90;;;;;;5088707;28;20441;-56
2020/12/03 05:31:44;;;;;;;16.10;7.40;;;1.90;99.90;;;;;;5086598;28;20047;-60
2020/12/03 05:34:18;;;;;;;13.63;7.85;;;1.90;99.90;;;;;;5089188;28;20502;-58
2020/12/03 05:36:55;;;;;;;12.98;7.78;;;1.90;99.90;;;;;;5072300;28;20101;-58
2020/12/03 05:39:28;;;;;;;15.88;8.60;;;1.90;99.90;;;;;;5073670;28;20039;-59
2020/12/03 05:41:58;;;;;;;13.77;7.30;;;1.90;99.90;;;;;;5075347;28;20578;-58
2020/12/03 05:44:26;;;;;;;21.83;12.65;;;1.90;99.90;;;;;;5068389;28;20039;-58
2020/12/03 05:46:54;;;;;;;19.13;11.55;;;1.90;99.90;;;;;;5066757;28;20033;-55
2020/12/03 05:49:26;;;;;;;17.42;9.88;;;2.00;99.90;;;;;;5063739;28;20036;-56
2020/12/03 05:52:13;;;;;;;14.25;8.65;;;1.90;99.90;;;;;;5071397;28;20125;-58
2020/12/03 05:54:39;;;;;;;14.82;8.55;;;1.90;99.90;;;;;;5087552;28;20130;-58
2020/12/03 05:57:05;;;;;;;16.92;8.02;;;1.90;99.90;;;;;;5087460;28;20144;-59
2020/12/03 05:59:30;;;;;;;15.95;8.80;;;1.90;99.90;;;;;;5083642;28;20501;-56
2020/12/03 06:02:29;;;;;;;17.67;8.63;;;1.90;99.90;;;;;;5086535;28;20085;-60
2020/12/03 06:05:17;;;;;;;17.08;9.10;;;1.90;99.90;;;;;;5087730;28;20044;-57
2020/12/03 06:07:56;;;;;;;22.23;10.82;;;1.90;99.90;;;;;;5086613;28;20070;-57
2020/12/03 06:10:46;;;;;;;19.70;11.27;;;1.80;99.90;;;;;;5087844;28;20127;-58
2020/12/03 06:13:34;;;;;;;22.35;12.10;;;1.80;99.90;;;;;;5084545;28;20044;-60
2020/12/03 06:16:34;;;;;;;19.60;10.20;;;1.70;99.90;;;;;;5066819;28;20532;-56
2020/12/03 06:19:11;;;;;;;25.23;15.25;;;1.70;99.90;;;;;;5067596;28;20510;-56
2020/12/03 06:22:00;;;;;;;17.33;9.23;;;1.70;99.90;;;;;;5067413;28;20109;-59
2020/12/03 06:24:46;;;;;;;16.08;9.15;;;1.70;99.90;;;;;;5047354;28;20041;-59
2020/12/03 06:27:25;;;;;;;14.00;7.97;;;1.60;99.90;;;;;;5047475;28;20036;-59
2020/12/03 06:29:54;;;;;;;16.67;8.85;;;1.50;99.90;;;;;;5066249;28;20554;-60
2020/12/03 06:32:39;;;;;;;13.75;8.02;;;1.50;99.90;;;;;;5062746;28;20472;-58
2020/12/03 06:35:30;;;;;;;18.10;9.35;;;1.50;99.90;;;;;;5068906;28;20450;-60
2020/12/03 06:38:09;;;;;;;17.58;8.88;;;1.50;99.90;;;;;;5067780;28;20036;-60
2020/12/03 06:40:43;;;;;;;17.33;8.75;;;1.50;99.90;;;;;;5067463;28;20788;-60
2020/12/03 06:43:36;;;;;;;14.63;8.20;;;1.60;99.90;;;;;;5069088;28;20075;-58
2020/12/03 06:46:45;;;;;;;13.85;7.93;;;1.60;99.90;;;;;;5067242;28;20115;-58
2020/12/03 06:49:39;;;;;;;18.80;9.75;;;1.60;99.90;;;;;;5059673;28;20053;-57
2020/12/03 06:52:53;;;;;;;24.33;10.43;;;1.60;99.90;;;;;;5067174;28;20055;-57
2020/12/03 06:55:43;;;;;;;18.92;10.02;;;1.50;99.90;;;;;;5047624;28;20095;-59
2020/12/03 06:58:40;;;;;;;20.95;11.18;;;1.50;99.90;;;;;;5061436;28;20036;-56
2020/12/03 07:01:25;;;;;;;24.35;11.20;;;1.40;99.90;;;;;;5082056;28;20039;-53
2020/12/03 07:04:02;;;;;;;23.50;11.60;;;1.40;99.90;;;;;;5080483;28;20052;-60
2020/12/03 07:06:36;;;;;;;23.17;11.50;;;1.40;99.90;;;;;;5067133;28;20037;-60
2020/12/03 07:09:12;;;;;;;25.23;12.98;;;1.40;99.90;;;;;;5066963;28;20139;-60
2020/12/03 07:11:55;;;;;;;23.33;11.82;;;1.30;99.90;;;;;;5067190;28;20040;-59
2020/12/03 07:14:39;;;;;;;21.10;10.65;;;1.30;99.90;;;;;;5084867;28;20084;-60
2020/12/03 07:17:23;;;;;;;20.55;10.75;;;1.30;99.90;;;;;;5084881;28;20511;-60
2020/12/03 07:20:35;;;;;;;21.50;10.75;;;1.30;99.90;;;;;;5085816;28;20052;-62
2020/12/03 07:23:08;;;;;;;19.85;9.57;;;1.30;99.90;;;;;;5087397;28;20044;-60
2020/12/03 07:25:34;;;;;;;19.15;9.85;;;1.30;99.90;;;;;;5072718;28;20527;-59
2020/12/03 07:28:18;;;;;;;18.40;9.82;;;1.30;99.90;;;;;;5070692;28;20044;-58
2020/12/03 07:31:11;;;;;;;18.05;9.70;;;1.30;99.90;;;;;;5070424;28;20039;-59
2020/12/03 07:34:13;;;;;;;21.45;9.82;;;1.40;99.90;;;;;;5070951;28;20040;-59
2020/12/03 07:36:54;;;;;;;17.77;9.57;;;1.30;99.90;;;;;;5071353;28;20049;-61
2020/12/03 07:39:28;;;;;;;21.15;10.30;;;1.30;99.90;;;;;;5071502;28;20158;-56
2020/12/03 07:41:57;;;;;;;19.20;9.05;;;1.30;99.90;;;;;;5081195;28;20107;-60
2020/12/03 07:44:41;;;;;;;20.70;10.45;;;1.30;99.90;;;;;;5071573;28;20756;-52
2020/12/03 07:47:25;;;;;;;19.17;9.95;;;1.20;99.90;;;;;;5064309;28;20036;-58
2020/12/03 07:49:54;;;;;;;16.75;9.07;;;1.20;99.90;;;;;;5067174;28;20198;-57
2020/12/03 07:52:29;;;;;;;20.70;9.93;;;1.30;99.90;;;;;;5070775;28;20061;-56
2020/12/03 07:55:21;;;;;;;19.30;9.27;;;1.30;99.90;;;;;;5070338;28;20036;-59
2020/12/03 07:57:51;;;;;;;16.25;8.63;;;1.30;99.90;;;;;;5070738;28;20071;-61
2020/12/03 08:00:42;;;;;;;17.75;9.43;;;1.20;99.90;;;;;;5064307;28;20523;-56
2020/12/03 08:03:09;;;;;;;18.90;9.05;;;1.30;99.90;;;;;;5090371;28;20492;-57
2020/12/03 08:05:51;;;;;;;14.35;8.50;;;1.40;99.90;;;;;;5090605;28;20040;-58
2020/12/03 08:08:23;;;;;;;18.27;9.20;;;1.40;99.90;;;;;;5089745;28;20040;-59
2020/12/03 08:10:52;;;;;;;18.05;8.38;;;1.40;99.90;;;;;;5088629;28;20776;-62
2020/12/03 08:13:28;;;;;;;20.40;8.65;;;1.40;99.90;;;;;;5090580;28;20040;-61
2020/12/03 08:15:59;;;;;;;15.77;8.80;;;1.40;99.90;;;;;;5080912;28;20471;-60
2020/12/03 08:18:46;;;;;;;18.98;9.75;;;1.50;99.90;;;;;;5068545;28;20048;-59
2020/12/03 08:21:14;;;;;;;;;;;1.40;99.90;;;;;;5062285;28;20044;-60
2020/12/03 08:23:39;;;;;;;15.25;8.43;;;1.30;99.90;;;;;;5068321;28;20014;-60
2020/12/03 08:26:05;;;;;;;16.00;7.95;;;1.30;99.90;;;;;;5084778;28;20702;-60
2020/12/03 08:28:33;;;;;;;17.08;9.38;;;1.40;99.90;;;;;;5067813;28;20508;-57
2020/12/03 08:30:58;;;;;;;16.77;8.15;;;1.40;99.90;;;;;;5069101;28;20036;-61
2020/12/03 08:33:31;;;;;;;17.60;8.77;;;1.50;99.90;;;;;;5056847;28;20534;-60
2020/12/03 08:36:05;;;;;;;20.70;9.43;;;1.50;99.90;;;;;;5048851;28;20127;-59
2020/12/03 08:38:37;;;;;;;25.23;10.90;;;1.50;99.90;;;;;;5055028;28;20799;-60
2020/12/03 08:41:07;;;;;;;23.77;11.10;;;1.40;99.90;;;;;;5069096;28;20131;-60
2020/12/03 08:43:39;;;;;;;22.48;11.45;;;1.30;99.90;;;;;;5049302;28;20047;-56
2020/12/03 08:46:09;;;;;;;21.88;10.48;;;1.20;99.90;;;;;;5074548;28;20028;-58
2020/12/03 08:48:38;;;;;;;20.38;9.68;;;1.20;99.90;;;;;;5089221;28;20404;-59
2020/12/03 08:51:07;;;;;;;18.15;9.15;;;1.20;99.90;;;;;;5082188;28;20040;-59
2020/12/03 08:53:34;;;;;;;17.92;8.68;;;1.10;99.90;;;;;;5069544;28;20479;-59
2020/12/03 08:56:06;;;;;;;20.52;8.95;;;1.20;99.90;;;;;;5069724;28;20090;-59
2020/12/03 08:58:35;;;;;;;15.82;8.25;;;1.30;99.90;;;;;;5068895;28;20283;-59
2020/12/03 09:01:02;;;;;;;19.42;8.38;;;1.40;99.90;;;;;;5074358;28;20035;-60
2020/12/03 09:03:32;;;;;;;14.20;7.30;;;1.40;99.90;;;;;;5051002;28;20619;-60
2020/12/03 09:05:58;;;;;;;15.70;8.25;;;1.40;99.90;;;;;;5067812;28;20040;-60
2020/12/03 09:08:24;;;;;;;15.35;7.75;;;1.30;99.90;;;;;;5068028;28;20044;-60
2020/12/03 09:10:55;;;;;;;12.73;6.68;;;1.40;99.90;;;;;;5067679;28;20624;-58
2020/12/03 09:13:21;;;;;;;16.63;8.32;;;1.50;99.90;;;;;;5065457;28;20052;-60
2020/12/03 09:15:52;;;;;;;17.75;8.90;;;1.50;99.90;;;;;;5057295;28;20048;-58
2020/12/03 09:18:17;;;;;;;16.27;8.55;;;1.50;99.90;;;;;;5046713;28;20048;-60
2020/12/03 09:20:46;;;;;;;15.10;7.60;;;1.60;99.90;;;;;;5048147;28;20059;-59
2020/12/03 09:23:16;;;;;;;15.07;7.70;;;1.60;99.90;;;;;;5046787;28;20049;-57
2020/12/03 09:25:42;;;;;;;15.50;7.50;;;1.50;99.90;;;;;;5075961;28;20032;-59
2020/12/03 09:28:08;;;;;;;14.45;7.75;;;1.40;99.90;;;;;;5087188;28;20043;-58
2020/12/03 09:30:35;;;;;;;15.15;8.52;;;1.40;99.90;;;;;;5075712;28;20036;-60
2020/12/03 09:33:02;;;;;;;17.60;8.80;;;1.40;99.90;;;;;;5069890;28;20124;-58
2020/12/03 09:35:31;;;;;;;15.93;8.63;;;1.30;99.90;;;;;;5068914;28;20044;-60
2020/12/03 09:38:05;;;;;;;17.85;8.75;;;1.40;99.90;;;;;;5068751;28;20106;-58
2020/12/03 09:40:32;;;;;;;16.35;7.55;;;1.40;99.90;;;;;;5068094;28;20040;-59
2020/12/03 09:42:58;;;;;;;16.58;9.05;;;1.50;99.90;;;;;;5068239;28;20045;-58
2020/12/03 09:45:31;;;;;;;17.98;8.57;;;1.50;99.90;;;;;;5083187;28;20036;-59
2020/12/03 09:47:57;;;;;;;18.83;8.50;;;1.50;99.90;;;;;;5086272;28;20083;-60
2020/12/03 09:50:23;;;;;;;18.55;8.77;;;1.50;99.90;;;;;;5070862;28;20102;-63
2020/12/03 09:52:50;;;;;;;18.42;8.90;;;1.60;99.90;;;;;;5067949;28;20060;-58
2020/12/03 09:55:16;;;;;;;15.32;7.45;;;1.50;99.90;;;;;;5067377;28;20628;-56
2020/12/03 09:57:55;;;;;;;15.98;8.50;;;1.50;99.90;;;;;;5067182;28;20400;-55
2020/12/03 10:00:28;;;;;;;17.95;8.65;;;1.50;99.90;;;;;;5067354;28;20113;-54
2020/12/03 10:02:54;;;;;;;15.52;8.20;;;1.50;99.90;;;;;;5067565;28;20083;-57
2020/12/03 10:05:34;;;;;;;18.95;8.82;;;1.60;99.90;;;;;;5067765;28;20079;-55
2020/12/03 10:08:37;;;;;;;17.95;8.25;;;1.60;99.90;;;;;;5071301;28;20032;-57
2020/12/03 10:11:18;;;;;;;17.80;8.55;;;1.70;99.90;;;;;;5074439;28;20561;-57
2020/12/03 10:14:30;;;;;;;17.35;8.57;;;1.60;99.90;;;;;;5068053;28;20131;-54
2020/12/03 10:17:06;;;;;;;15.32;8.23;;;1.70;99.90;;;;;;5046898;28;20057;-58
2020/12/03 10:19:40;;;;;;;16.50;8.10;;;1.80;99.90;;;;;;5074944;28;20044;-56
2020/12/03 10:22:10;;;;;;;14.70;7.10;;;1.80;99.90;;;;;;5087703;28;20078;-55
2020/12/03 10:24:46;;;;;;;13.98;6.88;;;1.80;99.90;;;;;;5087531;28;20040;-55
2020/12/03 10:27:22;;;;;;;16.02;8.18;;;1.80;99.90;;;;;;5072397;28;20113;-54
2020/12/03 10:29:57;;;;;;;16.60;6.47;;;1.80;99.90;;;;;;5080216;28;20109;-58
2020/12/03 10:32:24;;;;;;;9.52;5.63;;;1.80;99.90;;;;;;5086068;28;20284;-55
2020/12/03 10:34:50;;;;;;;10.52;5.63;;;1.90;99.90;;;;;;5087323;28;20040;-54
2020/12/03 10:37:21;;;;;;;7.35;4.25;;;1.90;99.90;;;;;;5080934;28;20036;-55
2020/12/03 10:39:52;;;;;;;9.05;5.05;;;1.90;99.90;;;;;;5068278;28;20044;-61
2020/12/03 10:42:19;;;;;;;8.85;4.68;;;1.90;99.90;;;;;;5067694;28;20036;-56
2020/12/03 10:44:47;;;;;;;8.77;4.60;;;2.00;99.90;;;;;;5066242;28;20064;-58
2020/12/03 10:47:16;;;;;;;8.50;4.80;;;1.90;99.90;;;;;;5065621;28;20032;-58
2020/12/03 10:49:43;;;;;;;8.50;5.03;;;2.10;99.90;;;;;;5052820;28;20170;-58
2020/12/03 10:52:13;;;;;;;9.23;4.95;;;2.10;99.90;;;;;;5066183;28;20043;-58
2020/12/03 10:54:40;;;;;;;24.77;15.15;;;2.10;99.90;;;;;;5066464;28;20056;-58
2020/12/03 10:57:22;;;;;;;10.07;6.25;;;2.10;99.90;;;;;;5065880;28;20043;-58
2020/12/03 10:59:50;;;;;;;12.23;6.57;;;2.10;99.90;;;;;;5082344;28;20067;-57
2020/12/03 11:02:27;;;;;;;23.55;17.60;;;2.10;99.90;;;;;;5084652;28;20071;-54
2020/12/03 11:04:53;;;;;;;17.27;11.95;;;2.10;99.90;;;;;;5086246;28;20043;-54
2020/12/03 11:07:19;;;;;;;14.35;7.63;;;2.10;99.90;;;;;;5086427;28;20051;-54
2020/12/03 11:09:51;;;;;;;14.00;6.97;;;2.20;99.90;;;;;;5083943;28;20081;-56
2020/12/03 11:12:17;;;;;;;12.90;6.40;;;2.10;99.90;;;;;;5066174;28;20041;-57
2020/12/03 11:14:43;;;;;;;13.70;7.50;;;2.20;99.90;;;;;;5066405;28;20040;-55
2020/12/03 11:17:23;;;;;;;15.15;6.93;;;2.10;99.90;;;;;;5066325;28;20047;-56
2020/12/03 11:19:53;;;;;;;16.80;8.90;;;2.20;99.90;;;;;;5066692;28;20895;-57
2020/12/03 11:22:22;;;;;;;16.67;8.02;;;2.20;99.90;;;;;;5067218;28;20044;-56
2020/12/03 11:25:05;;;;;;;16.08;8.27;;;2.10;99.90;;;;;;5066300;28;20036;-56
2020/12/03 11:27:31;;;;;;;15.05;7.85;;;2.20;99.90;;;;;;5068343;28;20044;-51
2020/12/03 11:29:57;;;;;;;13.30;7.72;;;2.20;99.90;;;;;;5066610;28;20129;-57
2020/12/03 11:32:24;;;;;;;35.97;20.27;;;2.20;99.90;;;;;;5066270;28;20097;-55
2020/12/03 11:34:50;;;;;;;16.70;8.55;;;2.20;99.90;;;;;;5066254;28;20044;-57
2020/12/03 11:37:24;;;;;;;16.15;7.47;;;2.20;99.90;;;;;;5066772;28;20589;-58
2020/12/03 11:40:02;;;;;;;16.05;8.35;;;2.10;99.90;;;;;;5066932;28;20036;-57
2020/12/03 11:42:46;;;;;;;13.32;7.32;;;2.20;99.90;;;;;;5067285;28;20150;-57
2020/12/03 11:45:45;;;;;;;16.30;9.52;;;2.20;99.90;;;;;;5066373;28;20048;-54
2020/12/03 11:50:39;;;;;;;14.93;7.97;;;2.20;99.90;;;;;;5065628;28;20044;-59
2020/12/03 11:53:06;;;;;;;19.58;10.70;;;2.10;99.90;;;;;;5083459;28;20044;-59
2020/12/03 11:55:40;;;;;;;20.67;11.35;;;2.10;99.90;;;;;;5077893;28;20041;-59
2020/12/03 11:58:08;;;;;;;15.07;9.10;;;2.20;99.90;;;;;;5065359;28;20090;-58
2020/12/03 12:00:35;;;;;;;16.70;9.18;;;2.20;99.90;;;;;;5065374;28;20590;-60
2020/12/03 12:03:05;;;;;;;29.75;17.00;;;2.10;99.90;;;;;;5073102;28;20055;-56
2020/12/03 12:10:59;;;;;;;20.98;9.93;;;2.30;99.90;;;;;;5067318;28;20067;-59
2020/12/03 12:13:24;;;;;;;18.50;9.45;;;1.90;99.90;;;;;;5049575;28;20722;-60
2020/12/03 12:15:50;;;;;;;19.90;10.68;;;1.60;99.90;;;;;;5068784;28;20048;-61
2020/12/03 12:18:16;;;;;;;17.77;9.35;;;1.40;99.90;;;;;;5069952;28;20094;-61
2020/12/03 12:20:42;;;;;;;20.55;9.82;;;1.40;99.90;;;;;;5069731;28;20044;-60
2020/12/03 12:23:07;;;;;;;18.23;9.00;;;1.40;99.90;;;;;;5069093;28;20046;-64
2020/12/03 12:25:33;;;;;;;19.75;10.38;;;1.50;99.90;;;;;;5070282;28;20036;-60
2020/12/03 12:27:59;;;;;;;22.80;12.05;;;1.70;99.90;;;;;;5089098;28;20487;-62
2020/12/03 12:30:24;;;;;;;22.65;10.63;;;1.40;99.90;;;;;;5088868;28;20048;-60
2020/12/03 12:32:50;;;;;;;24.85;13.88;;;1.40;99.90;;;;;;5088896;28;20452;-64
2020/12/03 12:35:15;;;;;;;22.02;9.57;;;1.30;99.90;;;;;;5089636;28;20044;-58
2020/12/03 12:37:41;;;;;;;16.95;8.98;;;1.30;99.90;;;;;;5080156;28;20102;-62
2020/12/03 12:40:07;;;;;;;19.80;9.80;;;1.50;99.90;;;;;;5069174;28;20099;-58
2020/12/03 12:42:33;;;;;;;19.15;9.55;;;1.40;99.90;;;;;;5076542;28;20613;-57
2020/12/03 12:44:58;;;;;;;16.85;8.40;;;1.30;99.90;;;;;;5069834;28;20076;-64
2020/12/03 12:47:25;;;;;;;19.77;9.75;;;1.30;99.90;;;;;;5070226;28;20548;-56
2020/12/03 12:49:51;;;;;;;19.92;9.40;;;1.40;99.90;;;;;;5070591;28;20047;-58
2020/12/03 12:52:16;;;;;;;17.90;8.20;;;1.40;99.90;;;;;;5069926;28;20115;-54
2020/12/03 12:54:43;;;;;;;17.85;9.32;;;1.50;99.90;;;;;;5089145;28;20126;-58
2020/12/03 12:57:09;;;;;;;22.23;11.18;;;1.50;99.90;;;;;;5087535;28;20051;-54
2020/12/03 12:59:35;;;;;;;23.50;11.07;;;1.40;99.90;;;;;;5087245;28;20089;-59
2020/12/03 13:02:00;;;;;;;22.05;11.43;;;1.30;99.90;;;;;;5088646;28;20412;-56
2020/12/03 13:04:26;;;;;;;26.20;11.95;;;1.20;99.90;;;;;;5089330;28;20048;-54
2020/12/03 13:06:56;;;;;;;21.77;10.40;;;1.10;99.90;;;;;;5089728;28;20032;-55
2020/12/03 13:09:25;;;;;;;20.63;10.27;;;1.10;99.90;;;;;;5089373;28;20051;-57
2020/12/03 13:11:51;;;;;;;23.58;10.75;;;1.20;99.90;;;;;;5073691;28;20083;-59
2020/12/03 13:14:17;;;;;;;24.23;11.43;;;1.20;99.90;;;;;;5068505;28;20052;-56
2020/12/03 13:16:43;;;;;;;23.85;11.88;;;1.20;99.90;;;;;;5067917;28;20113;-58
2020/12/03 13:19:08;;;;;;;23.27;10.48;;;1.20;99.90;;;;;;5068688;28;20135;-56